createdAt,value
2023-03-03T00:01:37.279Z,5.92
2023-03-03T00:04:04.685Z,5.83
2023-03-03T00:06:32.085Z,5.93
2023-03-03T00:08:59.431Z,5.88
2023-03-03T00:11:26.866Z,5.56
2023-03-03T00:13:56.785Z,5.67
2023-03-03T00:16:38.733Z,5.69
2023-03-03T00:19:19.328Z,5.70
2023-03-03T00:21:48.919Z,5.53
2023-03-03T00:24:25.287Z,5.45
2023-03-03T00:27:00.144Z,5.46
2023-03-03T00:29:27.518Z,5.52
2023-03-03T00:31:55.408Z,5.53
2023-03-03T00:34:28.264Z,5.45
2023-03-03T00:36:57.789Z,5.51
2023-03-03T00:39:36.251Z,5.53
2023-03-03T00:42:13.937Z,5.55
2023-03-03T00:44:48.320Z,5.70
2023-03-03T00:47:30.707Z,5.71
2023-03-03T00:50:07.757Z,5.79
2023-03-03T00:52:40.750Z,5.69
2023-03-03T00:55:08.820Z,5.67
2023-03-03T00:57:36.203Z,5.70
2023-03-03T01:00:05.817Z,5.61
2023-03-03T01:02:33.802Z,5.29
2023-03-03T01:05:01.860Z,5.40
2023-03-03T01:07:29.249Z,5.48
2023-03-03T01:09:56.762Z,5.31
2023-03-03T01:12:24.428Z,5.31
2023-03-03T01:14:53.150Z,5.23
2023-03-03T01:17:20.641Z,5.50
2023-03-03T01:19:48.050Z,5.51
2023-03-03T01:22:15.487Z,5.50
2023-03-03T01:24:42.913Z,5.24
2023-03-03T01:27:11.435Z,5.39
2023-03-03T01:29:38.959Z,5.41
2023-03-03T01:32:06.460Z,5.43
2023-03-03T01:34:34.132Z,5.57
2023-03-03T01:37:01.605Z,5.43
2023-03-03T01:39:29.007Z,5.35
2023-03-03T01:41:56.572Z,5.35
2023-03-03T01:44:23.957Z,5.39
2023-03-03T01:47:00.540Z,5.40
2023-03-03T01:49:36.588Z,5.45
2023-03-03T01:52:13.063Z,5.38
2023-03-03T01:54:50.566Z,5.38
2023-03-03T01:57:26.917Z,5.36
2023-03-03T01:59:57.662Z,5.28
2023-03-03T02:02:27.983Z,5.24
2023-03-03T02:04:55.929Z,5.25
2023-03-03T02:07:27.612Z,5.24
2023-03-03T02:10:14.455Z,5.33
2023-03-03T02:12:55.504Z,5.36
2023-03-03T02:15:32.240Z,5.24
2023-03-03T02:18:20.968Z,5.20
2023-03-03T02:20:54.320Z,5.30
2023-03-03T02:23:44.303Z,5.31
2023-03-03T02:26:22.762Z,5.28
2023-03-03T02:28:54.539Z,5.22
2023-03-03T02:31:25.133Z,5.25
2023-03-03T02:33:54.020Z,5.25
2023-03-03T02:36:34.147Z,5.29
2023-03-03T02:39:10.641Z,5.30
2023-03-03T02:41:48.651Z,5.18
2023-03-03T02:44:19.627Z,5.06
2023-03-03T02:46:49.156Z,5.10
2023-03-03T02:49:21.161Z,4.99
2023-03-03T02:51:48.990Z,5.02
2023-03-03T02:54:18.430Z,5.16
2023-03-03T02:56:46.833Z,5.17
2023-03-03T02:59:14.379Z,5.27
2023-03-03T03:01:47.087Z,5.08
2023-03-03T03:04:24.977Z,4.93
2023-03-03T03:06:54.322Z,5.11
2023-03-03T03:09:24.973Z,5.21
2023-03-03T03:11:54.211Z,5.20
2023-03-03T03:14:25.227Z,5.12
2023-03-03T03:16:54.786Z,5.09
2023-03-03T03:19:22.321Z,4.95
2023-03-03T03:21:50.053Z,4.85
2023-03-03T03:24:18.272Z,5.08
2023-03-03T03:26:51.634Z,5.13
2023-03-03T03:29:19.167Z,5.19
2023-03-03T03:31:46.561Z,5.14
2023-03-03T03:34:14.027Z,5.04
2023-03-03T03:36:41.524Z,4.91
2023-03-03T03:39:09.169Z,4.92
2023-03-03T03:41:41.210Z,4.88
2023-03-03T03:44:08.582Z,4.94
2023-03-03T03:46:36.039Z,5.11
2023-03-03T03:49:03.605Z,5.03
2023-03-03T03:51:31.620Z,5.10
2023-03-03T03:53:59.513Z,5.21
2023-03-03T03:56:27.110Z,5.22
2023-03-03T03:58:57.438Z,5.15
2023-03-03T04:01:25.512Z,5.12
2023-03-03T04:03:53.506Z,4.95
2023-03-03T04:06:24.357Z,4.88
2023-03-03T04:08:52.981Z,4.82
2023-03-03T04:11:22.823Z,4.88
2023-03-03T04:13:50.262Z,5.01
2023-03-03T04:16:18.228Z,5.00
2023-03-03T04:18:46.879Z,4.93
2023-03-03T04:21:16.470Z,5.00
2023-03-03T04:23:45.505Z,5.09
2023-03-03T04:26:12.956Z,4.99
2023-03-03T04:28:41.551Z,5.14
2023-03-03T04:31:09.068Z,5.08
2023-03-03T04:33:36.518Z,5.08
2023-03-03T04:36:05.896Z,5.14
2023-03-03T04:38:33.364Z,4.99
2023-03-03T04:41:01.019Z,5.00
2023-03-03T04:43:32.780Z,5.01
2023-03-03T04:46:01.437Z,4.92
2023-03-03T04:48:29.712Z,4.95
2023-03-03T04:50:57.125Z,4.92
2023-03-03T04:53:24.794Z,4.89
2023-03-03T04:55:53.542Z,4.83
2023-03-03T04:58:22.083Z,4.87
2023-03-03T05:00:55.530Z,4.71
2023-03-03T05:03:23.871Z,4.64
2023-03-03T05:05:51.293Z,4.62
2023-03-03T05:08:18.998Z,4.69
2023-03-03T05:10:46.339Z,4.68
2023-03-03T05:13:38.881Z,4.41
2023-03-03T05:16:06.643Z,4.42
2023-03-03T05:18:34.031Z,4.47
2023-03-03T05:21:01.507Z,4.56
2023-03-03T05:23:29.193Z,4.45
2023-03-03T05:25:56.932Z,4.40
2023-03-03T05:28:24.338Z,4.63
2023-03-03T05:30:51.765Z,4.72
2023-03-03T05:33:19.416Z,4.88
2023-03-03T05:35:47.055Z,4.77
2023-03-03T05:38:14.442Z,4.75
2023-03-03T05:40:41.849Z,4.79
2023-03-03T05:43:09.350Z,4.82
2023-03-03T05:45:36.740Z,4.74
2023-03-03T05:48:04.945Z,4.85
2023-03-03T05:50:32.881Z,4.89
2023-03-03T05:53:00.303Z,4.77
2023-03-03T05:55:27.631Z,4.89
2023-03-03T05:57:55.882Z,4.84
2023-03-03T06:00:23.440Z,4.75
2023-03-03T06:02:50.936Z,4.83
2023-03-03T06:05:18.504Z,4.89
2023-03-03T06:07:45.851Z,4.95
2023-03-03T06:10:13.302Z,5.03
2023-03-03T06:12:42.568Z,5.03
2023-03-03T06:15:10.810Z,5.08
2023-03-03T06:17:38.443Z,4.98
2023-03-03T06:20:06.884Z,4.81
2023-03-03T06:22:34.279Z,4.70
2023-03-03T06:25:01.605Z,4.56
2023-03-03T06:27:29.032Z,4.60
2023-03-03T06:29:56.421Z,4.66
2023-03-03T06:32:23.750Z,4.70
2023-03-03T06:34:51.191Z,4.79
2023-03-03T06:37:18.630Z,4.83
2023-03-03T06:39:45.933Z,4.92
2023-03-03T06:42:13.457Z,5.07
2023-03-03T06:44:41.055Z,5.21
2023-03-03T06:47:08.465Z,5.32
2023-03-03T06:49:36.085Z,5.35
2023-03-03T06:52:12.478Z,5.41
2023-03-03T06:54:40.564Z,5.92
2023-03-03T06:57:17.925Z,7.15
2023-03-03T06:59:47.264Z,7.24
2023-03-03T07:02:17.385Z,7.00
2023-03-03T07:04:47.068Z,6.95
2023-03-03T07:07:20.933Z,6.63
2023-03-03T07:09:50.730Z,6.79
2023-03-03T07:12:22.634Z,6.59
2023-03-03T07:15:00.812Z,6.73
2023-03-03T07:17:28.227Z,6.74
2023-03-03T07:19:55.630Z,6.86
2023-03-03T07:22:27.759Z,7.02
2023-03-03T07:25:00.775Z,7.11
2023-03-03T07:27:30.609Z,7.15
2023-03-03T07:30:26.232Z,7.36
2023-03-03T07:32:56.738Z,7.48
2023-03-03T07:35:40.331Z,7.68
2023-03-03T07:38:24.497Z,8.28
2023-03-03T07:40:57.321Z,9.27
2023-03-03T07:43:36.226Z,10.21
2023-03-03T07:46:27.959Z,10.73
2023-03-03T07:48:57.675Z,10.99
2023-03-03T07:51:29.182Z,10.99
2023-03-03T07:54:26.141Z,11.36
2023-03-03T07:56:53.513Z,11.13
2023-03-03T07:59:24.543Z,10.69
2023-03-03T08:01:56.238Z,11.30
2023-03-03T08:04:37.736Z,11.02
2023-03-03T08:07:16.580Z,10.52
2023-03-03T08:09:49.440Z,10.49
2023-03-03T08:12:19.467Z,10.42
2023-03-03T08:14:47.221Z,10.35
2023-03-03T08:17:22.102Z,10.25
2023-03-03T08:19:51.072Z,10.25
2023-03-03T08:22:39.911Z,10.55
2023-03-03T08:25:07.596Z,10.62
2023-03-03T08:27:34.959Z,10.47
2023-03-03T08:30:02.289Z,10.72
2023-03-03T08:32:29.644Z,10.81
2023-03-03T08:34:56.971Z,10.74
2023-03-03T08:37:24.306Z,10.32
2023-03-03T08:39:51.603Z,10.42
2023-03-03T08:42:18.957Z,10.13
2023-03-03T08:44:46.249Z,10.36
2023-03-03T08:47:13.535Z,10.75
2023-03-03T08:49:40.819Z,10.86
2023-03-03T08:52:08.175Z,11.06
2023-03-03T08:54:35.575Z,11.19
2023-03-03T08:57:04.033Z,11.30
2023-03-03T08:59:31.356Z,11.13
2023-03-03T09:02:17.896Z,11.19
2023-03-03T09:04:45.269Z,11.49
2023-03-03T09:07:12.663Z,11.64
2023-03-03T09:09:40.197Z,11.86
2023-03-03T09:12:17.751Z,11.80
2023-03-03T09:14:45.359Z,12.07
2023-03-03T09:17:35.482Z,11.69
2023-03-03T09:20:39.415Z,11.89
2023-03-03T09:23:29.560Z,12.01
2023-03-03T09:25:59.111Z,12.16
2023-03-03T09:28:29.087Z,12.25
2023-03-03T09:31:06.449Z,12.12
2023-03-03T09:33:43.893Z,12.16
2023-03-03T09:36:25.799Z,11.81
2023-03-03T09:38:54.706Z,11.68
2023-03-03T09:41:56.022Z,11.80
2023-03-03T09:44:32.492Z,11.57
2023-03-03T09:47:36.711Z,11.27
2023-03-03T09:50:15.936Z,11.30
2023-03-03T09:53:10.934Z,11.48
2023-03-03T09:56:07.379Z,11.67
2023-03-03T09:58:52.930Z,11.76
2023-03-03T10:01:41.766Z,11.79
2023-03-03T10:04:19.099Z,11.75
2023-03-03T10:07:03.039Z,11.64
2023-03-03T10:09:49.703Z,11.86
2023-03-03T10:12:31.595Z,11.90
2023-03-03T10:15:13.991Z,11.84
2023-03-03T10:18:07.058Z,11.66
2023-03-03T10:21:02.114Z,11.57
2023-03-03T10:23:56.905Z,11.86
2023-03-03T10:27:09.817Z,11.82
2023-03-03T10:29:59.317Z,11.88
2023-03-03T10:32:40.211Z,11.84
2023-03-03T10:35:13.409Z,11.90
2023-03-03T10:38:02.685Z,12.06
2023-03-03T10:40:37.564Z,12.14
2023-03-03T10:43:26.106Z,12.13
2023-03-03T10:46:36.224Z,12.26
2023-03-03T10:49:16.272Z,12.17
2023-03-03T10:52:02.879Z,12.26
2023-03-03T10:54:57.784Z,12.37
2023-03-03T10:57:46.303Z,12.36
2023-03-03T11:00:31.859Z,12.36
2023-03-03T11:03:33.132Z,12.50
2023-03-03T11:06:04.989Z,12.35
2023-03-03T11:08:43.377Z,12.21
2023-03-03T11:11:31.883Z,12.33
2023-03-03T11:14:12.253Z,12.39
2023-03-03T11:16:39.580Z,12.36
2023-03-03T11:19:28.715Z,12.40
2023-03-03T11:22:02.029Z,12.39
2023-03-03T11:24:51.502Z,12.58
2023-03-03T11:27:38.561Z,12.46
2023-03-03T11:30:11.649Z,12.49
2023-03-03T11:32:50.388Z,12.48
2023-03-03T11:35:27.527Z,12.41
2023-03-03T11:38:24.280Z,12.52
2023-03-03T11:40:57.211Z,12.81
2023-03-03T11:43:37.045Z,12.69
2023-03-03T11:46:30.502Z,12.56
2023-03-03T11:49:09.150Z,12.56
2023-03-03T11:51:59.074Z,12.69
2023-03-03T11:54:34.907Z,12.68
2023-03-03T11:57:20.760Z,12.73
2023-03-03T12:00:24.168Z,12.94
2023-03-03T12:03:41.971Z,12.88
2023-03-03T12:06:12.963Z,12.85
2023-03-03T12:09:02.159Z,12.88
2023-03-03T12:11:54.333Z,13.04
2023-03-03T12:14:47.269Z,12.86
2023-03-03T12:17:35.536Z,12.81
2023-03-03T12:20:21.159Z,12.71
2023-03-03T12:23:05.780Z,12.67
2023-03-03T12:25:51.952Z,12.64
2023-03-03T12:28:28.501Z,12.59
2023-03-03T12:30:58.716Z,12.64
2023-03-03T12:33:54.086Z,12.51
2023-03-03T12:36:46.129Z,12.52
2023-03-03T12:39:33.719Z,12.58
2023-03-03T12:42:17.148Z,12.77
2023-03-03T12:44:50.584Z,12.86
2023-03-03T12:47:23.204Z,12.53
2023-03-03T12:50:09.278Z,12.77
2023-03-03T12:52:44.700Z,12.81
2023-03-03T12:55:30.157Z,12.80
2023-03-03T12:58:20.359Z,12.94
2023-03-03T13:00:56.226Z,12.70
2023-03-03T13:03:53.229Z,12.68
2023-03-03T13:06:33.496Z,12.79
2023-03-03T13:09:35.111Z,12.64
2023-03-03T13:12:27.044Z,12.88
2023-03-03T13:15:00.744Z,13.01
2023-03-03T13:17:38.576Z,12.89
2023-03-03T13:20:24.842Z,12.84
2023-03-03T13:23:20.901Z,12.91
2023-03-03T13:25:54.823Z,13.04
2023-03-03T13:28:30.813Z,13.01
2023-03-03T13:31:06.681Z,13.05
2023-03-03T13:33:37.293Z,13.21
2023-03-03T13:36:09.288Z,13.35
2023-03-03T13:38:46.990Z,13.28
2023-03-03T13:41:25.949Z,13.42
2023-03-03T13:44:23.541Z,13.39
2023-03-03T13:47:38.028Z,13.14
2023-03-03T13:50:16.411Z,13.16
2023-03-03T13:53:08.611Z,13.08
2023-03-03T13:55:42.913Z,13.14
2023-03-03T13:58:34.551Z,13.36
2023-03-03T14:01:24.248Z,13.20
2023-03-03T14:04:39.635Z,13.19
2023-03-03T14:07:21.936Z,13.28
2023-03-03T14:10:07.507Z,13.45
2023-03-03T14:12:53.207Z,13.38
2023-03-03T14:15:54.222Z,13.64
2023-03-03T14:18:31.533Z,13.79
2023-03-03T14:21:27.175Z,13.58
2023-03-03T14:24:08.394Z,13.52
2023-03-03T14:26:55.727Z,13.58
2023-03-03T14:29:27.772Z,13.64
2023-03-03T14:31:57.050Z,13.64
2023-03-03T14:34:24.374Z,13.70
2023-03-03T14:36:57.817Z,13.82
2023-03-03T14:39:39.895Z,13.83
2023-03-03T14:42:14.739Z,13.73
2023-03-03T14:44:45.245Z,13.56
2023-03-03T14:47:24.959Z,13.57
2023-03-03T14:50:00.740Z,13.66
2023-03-03T14:52:30.824Z,13.59
2023-03-03T14:55:00.936Z,13.55
2023-03-03T14:57:46.367Z,13.44
2023-03-03T15:00:27.553Z,13.43
2023-03-03T15:03:21.593Z,13.46
2023-03-03T15:05:56.211Z,13.62
2023-03-03T15:08:32.753Z,13.53
2023-03-03T15:11:14.185Z,13.50
2023-03-03T15:13:41.695Z,13.50
2023-03-03T15:16:31.828Z,13.42
2023-03-03T15:19:37.991Z,13.41
2023-03-03T15:22:23.366Z,13.46
2023-03-03T15:25:04.053Z,13.46
2023-03-03T15:27:49.360Z,13.53
2023-03-03T15:30:37.456Z,13.41
2023-03-03T15:33:33.722Z,13.46
2023-03-03T15:36:39.247Z,13.30
2023-03-03T15:39:21.557Z,13.33
2023-03-03T15:42:04.953Z,13.19
2023-03-03T15:44:57.969Z,13.24
2023-03-03T15:47:43.797Z,13.20
2023-03-03T15:50:35.487Z,13.20
2023-03-03T15:53:05.612Z,13.14
2023-03-03T15:55:47.193Z,13.16
2023-03-03T15:58:37.532Z,13.18
2023-03-03T16:01:26.776Z,13.07
2023-03-03T16:04:18.003Z,13.00
2023-03-03T16:07:00.513Z,12.96
2023-03-03T16:09:47.469Z,12.97
2023-03-03T16:12:22.864Z,12.88
2023-03-03T16:15:17.614Z,12.85
2023-03-03T16:17:47.964Z,12.82
2023-03-03T16:20:28.318Z,12.78
2023-03-03T16:22:58.973Z,12.79
2023-03-03T16:25:34.098Z,12.78
2023-03-03T16:28:08.592Z,12.81
2023-03-03T16:30:56.090Z,12.80
2023-03-03T16:33:54.983Z,12.74
2023-03-03T16:36:32.285Z,12.71
2023-03-03T16:39:08.324Z,12.66
2023-03-03T16:41:45.529Z,12.65
2023-03-03T16:44:55.147Z,12.58
2023-03-03T16:47:44.155Z,12.57
2023-03-03T16:50:23.035Z,12.49
2023-03-03T16:53:03.781Z,12.49
2023-03-03T16:55:37.883Z,12.44
2023-03-03T16:58:39.302Z,12.39
2023-03-03T17:01:27.345Z,12.35
2023-03-03T17:04:06.937Z,12.30
2023-03-03T17:06:41.334Z,12.22
2023-03-03T17:09:30.152Z,12.21
2023-03-03T17:12:08.381Z,12.21
2023-03-03T17:14:54.523Z,12.14
2023-03-03T17:17:33.798Z,12.12
2023-03-03T17:20:20.913Z,12.04
2023-03-03T17:22:57.373Z,11.95
2023-03-03T17:25:37.223Z,11.88
2023-03-03T17:28:30.501Z,11.80
2023-03-03T17:31:12.966Z,11.80
2023-03-03T17:33:53.914Z,11.86
2023-03-03T17:36:32.755Z,11.89
2023-03-03T17:39:27.747Z,11.85
2023-03-03T17:42:29.287Z,11.82
2023-03-03T17:45:10.466Z,11.75
2023-03-03T17:48:00.563Z,11.67
2023-03-03T17:51:01.422Z,11.65
2023-03-03T17:53:53.153Z,11.53
2023-03-03T17:56:52.840Z,11.55
2023-03-03T17:59:49.067Z,11.57
2023-03-03T18:02:30.377Z,11.47
2023-03-03T18:05:42.796Z,11.41
2023-03-03T18:08:22.898Z,11.36
2023-03-03T18:10:59.884Z,11.25
2023-03-03T18:13:50.478Z,11.14
2023-03-03T18:16:20.706Z,11.12
2023-03-03T18:19:19.244Z,11.00
2023-03-03T18:22:05.597Z,10.83
2023-03-03T18:24:54.244Z,10.74
2023-03-03T18:27:24.672Z,10.79
2023-03-03T18:30:20.568Z,10.72
2023-03-03T18:33:03.371Z,10.62
2023-03-03T18:35:40.054Z,10.61
2023-03-03T18:38:16.473Z,10.55
2023-03-03T18:40:57.887Z,10.47
2023-03-03T18:43:43.578Z,10.54
2023-03-03T18:46:30.906Z,10.46
2023-03-03T18:49:01.259Z,10.42
2023-03-03T18:51:34.662Z,10.29
2023-03-03T18:54:26.297Z,10.27
2023-03-03T18:56:53.491Z,10.18
2023-03-03T18:59:36.153Z,10.15
2023-03-03T19:02:12.695Z,10.05
2023-03-03T19:04:55.678Z,10.06
2023-03-03T19:07:26.500Z,10.09
2023-03-03T19:09:58.260Z,10.04
2023-03-03T19:12:59.107Z,9.86
2023-03-03T19:15:36.206Z,9.83
2023-03-03T19:18:23.685Z,9.63
2023-03-03T19:21:19.252Z,9.53
2023-03-03T19:23:59.912Z,9.50
2023-03-03T19:26:30.330Z,9.52
2023-03-03T19:29:13.036Z,9.59
2023-03-03T19:31:57.780Z,9.48
2023-03-03T19:34:34.053Z,9.65
2023-03-03T19:38:00.640Z,9.58
2023-03-03T19:40:56.815Z,9.40
2023-03-03T19:43:48.964Z,9.28
2023-03-03T19:47:10.216Z,9.14
2023-03-03T19:49:58.492Z,9.17
2023-03-03T19:52:36.870Z,9.45
2023-03-03T19:55:19.344Z,9.41
2023-03-03T19:57:49.506Z,9.37
2023-03-03T20:00:41.323Z,9.37
2023-03-03T20:03:34.050Z,9.38
2023-03-03T20:06:29.274Z,9.39
2023-03-03T20:09:08.241Z,9.32
2023-03-03T20:11:48.101Z,9.36
2023-03-03T20:14:25.556Z,9.22
2023-03-03T20:16:58.336Z,8.86
2023-03-03T20:20:11.364Z,8.81
2023-03-03T20:22:47.681Z,8.86
2023-03-03T20:25:43.641Z,8.81
2023-03-03T20:28:56.247Z,8.79
2023-03-03T20:31:26.945Z,8.76
2023-03-03T20:34:13.316Z,8.77
2023-03-03T20:36:40.787Z,8.84
2023-03-03T20:39:17.181Z,8.81
2023-03-03T20:42:05.862Z,8.96
2023-03-03T20:44:51.971Z,9.01
2023-03-03T20:47:52.346Z,9.04
2023-03-03T20:50:44.226Z,9.00
2023-03-03T20:53:14.464Z,9.02
2023-03-03T20:55:47.739Z,9.03
2023-03-03T20:58:23.833Z,9.02
2023-03-03T21:01:08.546Z,8.93
2023-03-03T21:03:43.106Z,8.88
2023-03-03T21:06:17.879Z,8.94
2023-03-03T21:08:53.690Z,8.94
2023-03-03T21:11:40.743Z,8.79
2023-03-03T21:15:06.307Z,8.89
2023-03-03T21:17:33.983Z,8.82
2023-03-03T21:20:33.917Z,8.89
2023-03-03T21:23:02.628Z,8.97
2023-03-03T21:25:52.389Z,9.04
2023-03-03T21:28:31.829Z,9.05
2023-03-03T21:31:15.988Z,9.15
2023-03-03T21:33:45.310Z,9.07
2023-03-03T21:36:15.695Z,9.13
2023-03-03T21:38:45.165Z,9.02
2023-03-03T21:41:13.982Z,8.99
2023-03-03T21:43:50.732Z,8.91
2023-03-03T21:46:23.540Z,8.83
2023-03-03T21:48:52.056Z,8.77
2023-03-03T21:51:20.590Z,8.65
2023-03-03T21:53:48.001Z,8.57
2023-03-03T21:56:15.412Z,8.54
2023-03-03T21:58:43.346Z,8.60
2023-03-03T22:01:10.800Z,8.61
2023-03-03T22:03:39.826Z,8.79
2023-03-03T22:06:07.925Z,8.82
2023-03-03T22:08:35.407Z,8.77
2023-03-03T22:11:02.851Z,8.71
2023-03-03T22:13:30.329Z,8.67
2023-03-03T22:15:57.805Z,8.64
2023-03-03T22:18:25.214Z,8.68
2023-03-03T22:20:52.572Z,8.63
2023-03-03T22:23:20.049Z,8.68
2023-03-03T22:25:47.989Z,8.82
2023-03-03T22:28:15.447Z,8.84
2023-03-03T22:30:43.131Z,8.77
2023-03-03T22:33:10.860Z,8.64
2023-03-03T22:35:38.302Z,8.51
2023-03-03T22:38:06.083Z,8.32
2023-03-03T22:40:33.809Z,8.26
2023-03-03T22:43:01.276Z,8.04
2023-03-03T22:45:28.640Z,8.03
2023-03-03T22:47:56.036Z,8.09
2023-03-03T22:50:23.526Z,8.02
2023-03-03T22:52:51.040Z,8.12
2023-03-03T22:55:18.396Z,8.27
2023-03-03T22:57:45.715Z,8.27
2023-03-03T23:00:14.502Z,8.33
2023-03-03T23:02:42.346Z,8.48
2023-03-03T23:05:11.113Z,8.39
2023-03-03T23:07:40.998Z,8.25
2023-03-03T23:10:10.020Z,8.26
2023-03-03T23:12:37.448Z,8.23
2023-03-03T23:15:13.134Z,8.32
2023-03-03T23:17:44.715Z,8.34
2023-03-03T23:20:12.994Z,8.26
2023-03-03T23:22:40.852Z,8.15
2023-03-03T23:25:08.921Z,8.08
2023-03-03T23:27:36.547Z,7.97
2023-03-03T23:30:05.485Z,8.07
2023-03-03T23:32:32.977Z,8.09
2023-03-03T23:35:00.378Z,8.08
2023-03-03T23:37:27.978Z,7.97
2023-03-03T23:39:55.480Z,7.99
2023-03-03T23:42:22.949Z,7.95
2023-03-03T23:44:50.651Z,7.87
2023-03-03T23:47:17.971Z,7.93
2023-03-03T23:49:45.441Z,8.06
2023-03-03T23:52:12.783Z,7.96
2023-03-03T23:54:40.196Z,8.04
2023-03-03T23:57:08.142Z,8.10
2023-03-03T23:59:35.931Z,7.89
